createdAt,value
2019-06-01T00:02:12.711Z,28.95
2019-06-01T00:05:08.704Z,28.30
2019-06-01T00:08:04.103Z,27.98
2019-06-01T00:10:59.115Z,28.40
2019-06-01T00:13:54.138Z,28.42
2019-06-01T00:16:50.320Z,28.20
2019-06-01T00:19:46.248Z,27.40
2019-06-01T00:22:41.329Z,28.17
2019-06-01T00:25:37.091Z,28.42
2019-06-01T00:28:32.004Z,28.15
2019-06-01T00:31:26.963Z,28.80
2019-06-01T00:34:21.788Z,30.10
2019-06-01T00:37:16.668Z,30.17
2019-06-01T00:40:11.812Z,31.93
2019-06-01T00:43:07.498Z,28.75
2019-06-01T00:46:02.276Z,28.85
2019-06-01T00:48:57.033Z,28.50
2019-06-01T00:51:53.788Z,29.32
2019-06-01T00:54:49.495Z,27.90
2019-06-01T00:57:45.696Z,27.70
2019-06-01T01:00:44.239Z,28.00
2019-06-01T01:03:41.279Z,27.40
2019-06-01T01:06:37.819Z,27.87
2019-06-01T01:09:33.254Z,29.45
2019-06-01T01:12:29.553Z,28.02
2019-06-01T01:15:25.035Z,28.80
2019-06-01T01:18:20.824Z,29.65
2019-06-01T01:21:16.955Z,29.15
2019-06-01T01:24:14.186Z,28.67
2019-06-01T01:27:10.279Z,29.35
2019-06-01T01:30:07.349Z,29.25
2019-06-01T01:33:04.254Z,28.17
2019-06-01T01:35:59.730Z,29.20
2019-06-01T01:38:54.657Z,31.60
2019-06-01T01:41:50.064Z,32.45
2019-06-01T01:44:45.924Z,29.70
2019-06-01T01:47:41.544Z,30.23
2019-06-01T01:50:38.119Z,28.95
2019-06-01T01:53:33.606Z,30.70
2019-06-01T01:56:29.005Z,30.17
2019-06-01T01:59:24.635Z,30.90
2019-06-01T02:02:21.326Z,29.82
2019-06-01T02:05:17.921Z,29.00
2019-06-01T02:08:14.216Z,30.25
2019-06-01T02:11:09.980Z,29.50
2019-06-01T02:14:04.777Z,30.55
2019-06-01T02:17:00.265Z,31.95
2019-06-01T02:19:56.082Z,31.90
2019-06-01T02:22:53.037Z,30.60
2019-06-01T02:25:48.249Z,29.00
2019-06-01T02:28:45.175Z,30.72
2019-06-01T02:31:42.477Z,28.23
2019-06-01T02:34:37.834Z,27.52
2019-06-01T02:37:35.018Z,25.57
2019-06-01T02:40:30.424Z,22.85
2019-06-01T02:43:25.422Z,25.25
2019-06-01T02:46:20.714Z,23.35
2019-06-01T02:49:15.408Z,26.12
2019-06-01T02:52:11.455Z,24.52
2019-06-01T02:55:06.807Z,23.85
2019-06-01T02:58:02.357Z,23.50
2019-06-01T03:01:28.690Z,22.73
2019-06-01T03:04:25.811Z,22.65
2019-06-01T03:07:22.553Z,24.23
2019-06-01T03:10:17.987Z,23.02
2019-06-01T03:13:17.518Z,24.30
2019-06-01T03:16:18.927Z,24.20
2019-06-01T03:19:17.286Z,23.07
2019-06-01T03:22:15.837Z,25.00
2019-06-01T03:25:12.709Z,24.10
2019-06-01T03:28:10.321Z,26.23
2019-06-01T03:31:08.287Z,25.80
2019-06-01T03:34:04.418Z,29.52
2019-06-01T03:37:01.133Z,27.15
2019-06-01T03:39:56.777Z,27.17
2019-06-01T03:42:52.702Z,26.65
2019-06-01T03:45:49.891Z,26.23
2019-06-01T03:48:46.282Z,27.58
2019-06-01T03:51:42.589Z,26.87
2019-06-01T03:54:37.945Z,26.12
2019-06-01T03:57:35.461Z,25.68
2019-06-01T04:00:30.044Z,24.87
2019-06-01T04:03:28.037Z,25.37
2019-06-01T04:06:24.228Z,21.60
2019-06-01T04:09:19.661Z,21.30
2019-06-01T04:12:14.389Z,20.88
2019-06-01T04:15:14.530Z,21.60
2019-06-01T04:18:07.999Z,20.72
2019-06-01T04:21:04.238Z,21.75
2019-06-01T04:23:59.610Z,21.80
2019-06-01T04:26:57.144Z,20.20
2019-06-01T04:29:53.735Z,20.30
2019-06-01T04:32:50.639Z,19.87
2019-06-01T04:35:48.284Z,19.75
2019-06-01T04:38:43.805Z,19.42
2019-06-01T04:41:39.040Z,19.60
2019-06-01T04:44:34.270Z,19.15
2019-06-01T04:47:29.445Z,21.02
2019-06-01T04:50:25.181Z,18.67
2019-06-01T04:53:20.830Z,18.32
2019-06-01T04:56:16.266Z,19.37
2019-06-01T04:59:13.001Z,19.40
2019-06-01T05:02:11.482Z,20.50
2019-06-01T05:05:09.165Z,21.15
2019-06-01T05:08:05.354Z,21.27
2019-06-01T05:11:05.075Z,19.62
2019-06-01T05:13:59.883Z,20.02
2019-06-01T05:16:57.121Z,19.90
2019-06-01T05:19:54.018Z,20.68
2019-06-01T05:22:52.833Z,20.00
2019-06-01T05:25:53.376Z,20.27
2019-06-01T05:28:52.380Z,19.15
2019-06-01T05:31:51.069Z,18.57
2019-06-01T05:34:46.810Z,19.37
2019-06-01T05:37:43.687Z,17.90
2019-06-01T05:40:40.827Z,17.05
2019-06-01T05:43:39.596Z,18.45
2019-06-01T05:46:35.198Z,17.50
2019-06-01T05:49:36.369Z,17.00
2019-06-01T05:52:33.454Z,15.65
2019-06-01T05:55:33.381Z,16.87
2019-06-01T05:58:33.909Z,16.75
2019-06-01T06:01:33.962Z,18.15
2019-06-01T06:04:38.026Z,19.48
2019-06-01T06:07:42.011Z,19.70
2019-06-01T06:10:45.495Z,18.55
2019-06-01T06:13:51.765Z,20.65
2019-06-01T06:16:50.025Z,20.77
2019-06-01T06:19:46.865Z,19.32
2019-06-01T06:22:43.712Z,19.40
2019-06-01T06:25:41.340Z,20.68
2019-06-01T06:28:38.512Z,20.95
2019-06-01T06:31:35.337Z,19.02
2019-06-01T06:34:32.267Z,19.95
2019-06-01T06:37:28.976Z,18.90
2019-06-01T06:40:27.808Z,18.87
2019-06-01T06:43:32.605Z,18.17
2019-06-01T06:46:24.878Z,16.95
2019-06-01T06:49:23.290Z,16.10
2019-06-01T06:52:23.497Z,14.53
2019-06-01T06:55:21.895Z,12.98
2019-06-01T06:58:24.462Z,12.73
2019-06-01T07:01:22.869Z,12.90
2019-06-01T07:04:19.374Z,12.65
2019-06-01T07:07:17.921Z,13.25
2019-06-01T07:10:16.331Z,13.80
2019-06-01T07:13:14.257Z,12.40
2019-06-01T07:16:11.683Z,12.65
2019-06-01T07:19:09.312Z,13.00
2019-06-01T07:22:17.166Z,13.25
2019-06-01T07:25:15.115Z,12.30
2019-06-01T07:28:12.368Z,12.90
2019-06-01T07:31:08.488Z,13.40
2019-06-01T07:34:05.297Z,13.40
2019-06-01T07:37:01.332Z,12.90
2019-06-01T07:39:56.579Z,14.20
2019-06-01T07:42:52.157Z,13.60
2019-06-01T07:45:49.555Z,15.10
2019-06-01T07:48:47.540Z,14.03
2019-06-01T07:51:43.979Z,14.90
2019-06-01T07:54:40.849Z,15.53
2019-06-01T07:57:36.743Z,14.95
2019-06-01T08:00:33.357Z,14.28
2019-06-01T08:03:34.667Z,14.93
2019-06-01T08:06:32.726Z,15.10
2019-06-01T08:09:31.535Z,16.15
2019-06-01T08:12:27.781Z,16.35
2019-06-01T08:15:27.981Z,16.65
2019-06-01T08:18:28.375Z,17.52
2019-06-01T08:21:25.939Z,18.27
2019-06-01T08:24:24.102Z,18.17
2019-06-01T08:27:30.622Z,17.52
2019-06-01T08:30:20.912Z,16.97
2019-06-01T08:33:18.845Z,17.77
2019-06-01T08:36:18.067Z,17.80
2019-06-01T08:39:16.253Z,18.23
2019-06-01T08:42:19.054Z,18.35
2019-06-01T08:45:18.032Z,19.50
2019-06-01T08:48:17.029Z,17.62
2019-06-01T08:51:15.133Z,18.30
2019-06-01T08:54:15.620Z,17.90
2019-06-01T08:57:13.484Z,18.40
2019-06-01T09:00:12.761Z,18.45
2019-06-01T09:03:12.924Z,18.82
2019-06-01T09:06:12.551Z,18.77
2019-06-01T09:09:12.644Z,18.07
2019-06-01T09:12:11.321Z,18.62
2019-06-01T09:15:07.937Z,18.32
2019-06-01T09:18:06.449Z,20.17
2019-06-01T09:21:02.543Z,17.85
2019-06-01T09:24:00.441Z,18.52
2019-06-01T09:26:57.530Z,17.82
2019-06-01T09:29:53.433Z,17.67
2019-06-01T09:32:49.776Z,18.87
2019-06-01T09:35:55.626Z,18.48
2019-06-01T09:38:45.707Z,17.98
2019-06-01T09:41:41.344Z,19.30
2019-06-01T09:44:39.954Z,17.92
2019-06-01T09:47:38.645Z,17.70
2019-06-01T09:50:35.988Z,16.95
2019-06-01T09:53:37.949Z,17.82
2019-06-01T09:56:37.187Z,17.52
2019-06-01T09:59:34.084Z,17.92
2019-06-01T10:02:32.239Z,18.15
2019-06-01T10:05:30.070Z,17.60
2019-06-01T10:08:27.385Z,17.73
2019-06-01T10:11:25.376Z,18.73
2019-06-01T10:14:23.149Z,17.45
2019-06-01T10:17:24.439Z,16.73
2019-06-01T10:20:24.629Z,17.57
2019-06-01T10:23:22.607Z,16.75
2019-06-01T10:26:20.176Z,22.22
2019-06-01T10:29:17.805Z,17.40
2019-06-01T10:32:15.027Z,17.77
2019-06-01T10:35:13.824Z,16.90
2019-06-01T10:38:12.176Z,17.80
2019-06-01T10:41:13.021Z,17.80
2019-06-01T10:44:09.705Z,17.55
2019-06-01T10:47:09.408Z,16.85
2019-06-01T10:50:06.876Z,17.25
2019-06-01T10:53:03.985Z,16.27
2019-06-01T10:56:00.516Z,15.48
2019-06-01T10:59:00.482Z,15.63
2019-06-01T11:02:10.580Z,16.00
2019-06-01T11:05:14.659Z,17.60
2019-06-01T11:08:11.664Z,16.95
2019-06-01T11:11:09.226Z,17.17
2019-06-01T11:14:05.927Z,17.95
2019-06-01T11:17:03.723Z,17.82
2019-06-01T11:20:00.840Z,17.20
2019-06-01T11:22:58.104Z,17.30
2019-06-01T11:25:58.230Z,17.23
2019-06-01T11:28:56.750Z,16.70
2019-06-01T11:31:53.370Z,18.75
2019-06-01T11:34:51.820Z,15.72
2019-06-01T11:37:51.465Z,14.78
2019-06-01T11:40:50.671Z,16.60
2019-06-01T11:43:52.809Z,15.55
2019-06-01T11:46:55.370Z,16.52
2019-06-01T11:49:58.169Z,15.32
2019-06-01T11:53:01.078Z,14.95
2019-06-01T11:56:02.575Z,15.15
2019-06-01T11:59:06.294Z,16.80
2019-06-01T12:02:05.750Z,15.50
2019-06-01T12:05:07.997Z,14.63
2019-06-01T12:08:06.592Z,14.60
2019-06-01T12:11:10.890Z,15.38
2019-06-01T12:14:12.916Z,15.15
2019-06-01T12:17:20.658Z,14.95
2019-06-01T12:20:26.542Z,15.00
2019-06-01T12:23:29.267Z,15.08
2019-06-01T12:26:31.853Z,15.30
2019-06-01T12:29:32.819Z,17.35
2019-06-01T12:32:31.927Z,18.05
2019-06-01T12:35:38.284Z,16.45
2019-06-01T12:38:55.639Z,15.75
2019-06-01T12:41:59.677Z,14.83
2019-06-01T12:45:02.864Z,16.57
